createdAt,value
2019-03-24T00:01:41.914Z,5.30
2019-03-24T00:04:13.995Z,5.00
2019-03-24T00:06:45.998Z,5.33
2019-03-24T00:09:18.014Z,5.40
2019-03-24T00:11:50.063Z,5.53
2019-03-24T00:14:22.017Z,4.13
2019-03-24T00:16:57.175Z,5.70
2019-03-24T00:19:29.092Z,5.13
2019-03-24T00:22:01.061Z,5.67
2019-03-24T00:24:33.076Z,6.90
2019-03-24T00:27:05.152Z,7.73
2019-03-24T00:29:37.126Z,6.67
2019-03-24T00:32:09.243Z,9.70
2019-03-24T00:34:41.295Z,7.37
2019-03-24T00:37:13.286Z,10.10
2019-03-24T00:39:45.284Z,9.77
2019-03-24T00:42:17.318Z,6.60
2019-03-24T00:44:49.317Z,8.47
2019-03-24T00:47:21.403Z,7.73
2019-03-24T00:49:53.414Z,7.17
2019-03-24T00:52:25.473Z,9.13
2019-03-24T00:54:57.383Z,7.13
2019-03-24T00:57:29.442Z,6.97
2019-03-24T01:00:01.487Z,6.47
2019-03-24T01:02:33.551Z,8.60
2019-03-24T01:05:06.136Z,7.63
2019-03-24T01:07:38.135Z,7.60
2019-03-24T01:10:10.644Z,6.53
2019-03-24T01:12:42.778Z,7.10
2019-03-24T01:15:15.024Z,7.03
2019-03-24T01:17:47.062Z,6.47
2019-03-24T01:20:19.962Z,7.40
2019-03-24T01:22:51.957Z,7.33
2019-03-24T01:25:24.195Z,7.60
2019-03-24T01:27:56.147Z,8.57
2019-03-24T01:30:28.328Z,6.87
2019-03-24T01:33:00.412Z,7.30
2019-03-24T01:35:32.435Z,7.90
2019-03-24T01:38:04.481Z,7.77
2019-03-24T01:40:36.722Z,7.67
2019-03-24T01:43:08.802Z,6.77
2019-03-24T01:45:40.828Z,7.93
2019-03-24T01:48:13.280Z,8.30
2019-03-24T01:50:45.188Z,7.90
2019-03-24T01:53:17.256Z,9.60
2019-03-24T01:55:49.298Z,8.57
2019-03-24T01:58:21.361Z,7.37
2019-03-24T02:00:54.101Z,7.37
2019-03-24T02:03:26.273Z,7.73
2019-03-24T02:05:58.367Z,7.33
2019-03-24T02:08:30.469Z,7.03
2019-03-24T02:11:02.515Z,7.70
2019-03-24T02:13:34.596Z,8.83
2019-03-24T02:16:09.599Z,8.03
2019-03-24T02:18:40.368Z,7.17
2019-03-24T02:21:12.434Z,6.67
2019-03-24T02:23:44.489Z,7.10
2019-03-24T02:26:16.521Z,7.80
2019-03-24T02:28:48.462Z,8.10
2019-03-24T02:31:20.548Z,8.70
2019-03-24T02:33:52.626Z,7.23
2019-03-24T02:36:24.684Z,8.70
2019-03-24T02:38:56.753Z,7.77
2019-03-24T02:41:28.810Z,5.53
2019-03-24T02:44:00.790Z,6.50
2019-03-24T02:46:32.947Z,5.27
2019-03-24T02:49:04.959Z,6.40
2019-03-24T02:51:36.984Z,6.73
2019-03-24T02:54:09.072Z,5.90
2019-03-24T02:56:41.151Z,5.77
2019-03-24T02:59:13.255Z,5.50
2019-03-24T03:01:45.280Z,5.70
2019-03-24T03:04:17.296Z,6.37
2019-03-24T03:06:49.382Z,5.50
2019-03-24T03:09:21.518Z,5.30
2019-03-24T03:11:53.635Z,5.10
2019-03-24T03:14:25.756Z,5.63
2019-03-24T03:16:57.735Z,5.03
2019-03-24T03:19:29.875Z,6.10
2019-03-24T03:22:01.942Z,4.90
2019-03-24T03:24:34.017Z,5.40
2019-03-24T03:27:06.278Z,4.80
2019-03-24T03:29:38.327Z,5.50
2019-03-24T03:32:10.371Z,4.30
2019-03-24T03:34:42.488Z,4.33
2019-03-24T03:37:14.548Z,6.00
2019-03-24T03:39:46.510Z,4.60
2019-03-24T03:42:18.630Z,4.60
2019-03-24T03:44:50.632Z,5.20
2019-03-24T03:47:22.696Z,4.80
2019-03-24T03:49:54.677Z,5.03
2019-03-24T03:52:26.712Z,5.23
2019-03-24T03:54:58.810Z,5.17
2019-03-24T03:57:30.899Z,4.40
2019-03-24T04:00:02.957Z,5.50
2019-03-24T04:02:35.089Z,5.20
2019-03-24T04:05:08.026Z,4.33
2019-03-24T04:07:40.099Z,4.07
2019-03-24T04:10:12.459Z,5.23
2019-03-24T04:12:44.511Z,3.40
2019-03-24T04:15:16.555Z,5.30
2019-03-24T04:17:48.600Z,3.97
2019-03-24T04:20:20.648Z,5.07
2019-03-24T04:22:52.734Z,3.87
2019-03-24T04:25:24.770Z,4.13
2019-03-24T04:27:56.838Z,4.10
2019-03-24T04:30:28.889Z,4.57
2019-03-24T04:33:00.863Z,4.17
2019-03-24T04:35:32.878Z,4.33
2019-03-24T04:38:04.966Z,6.00
2019-03-24T04:40:36.998Z,5.00
2019-03-24T04:43:08.986Z,4.43
2019-03-24T04:45:41.099Z,5.30
2019-03-24T04:48:13.154Z,5.00
2019-03-24T04:50:45.160Z,4.07
2019-03-24T04:53:17.207Z,4.17
2019-03-24T04:55:49.264Z,4.20
2019-03-24T04:58:21.301Z,3.77
2019-03-24T05:00:53.292Z,4.23
2019-03-24T05:03:25.395Z,4.40
2019-03-24T05:05:57.889Z,5.30
2019-03-24T05:08:31.281Z,4.60
2019-03-24T05:11:03.304Z,4.40
2019-03-24T05:13:35.412Z,3.70
2019-03-24T05:16:07.444Z,3.33
2019-03-24T05:18:39.612Z,4.80
2019-03-24T05:21:11.606Z,5.00
2019-03-24T05:23:45.953Z,4.63
2019-03-24T05:26:17.379Z,4.70
2019-03-24T05:28:49.453Z,4.00
2019-03-24T05:31:21.475Z,3.20
2019-03-24T05:33:53.511Z,4.43
2019-03-24T05:36:25.520Z,4.33
2019-03-24T05:38:57.716Z,3.13
2019-03-24T05:41:29.759Z,5.30
2019-03-24T05:44:01.803Z,3.80
2019-03-24T05:46:33.883Z,4.03
2019-03-24T05:49:05.867Z,4.33
2019-03-24T05:51:37.883Z,4.70
2019-03-24T05:54:09.816Z,4.63
2019-03-24T05:56:41.909Z,4.67
2019-03-24T05:59:13.895Z,4.77
2019-03-24T06:01:46.016Z,4.00
2019-03-24T06:04:18.087Z,3.83
2019-03-24T06:06:50.144Z,5.37
2019-03-24T06:09:22.209Z,6.17
2019-03-24T06:11:54.299Z,5.70
2019-03-24T06:14:26.350Z,3.83
2019-03-24T06:16:58.377Z,4.60
2019-03-24T06:19:30.864Z,3.80
2019-03-24T06:22:02.899Z,4.27
2019-03-24T06:24:34.870Z,4.83
2019-03-24T06:27:06.923Z,5.70
2019-03-24T06:29:38.922Z,4.23
2019-03-24T06:32:10.873Z,4.80
2019-03-24T06:34:42.962Z,5.97
2019-03-24T06:37:14.981Z,4.87
2019-03-24T06:39:47.046Z,5.10
2019-03-24T06:42:19.092Z,6.33
2019-03-24T06:44:51.049Z,5.83
2019-03-24T06:47:23.141Z,7.47
2019-03-24T06:49:55.206Z,4.40
2019-03-24T06:52:27.302Z,6.50
2019-03-24T06:54:59.354Z,7.30
2019-03-24T06:57:32.438Z,6.07
2019-03-24T07:00:04.536Z,5.90
2019-03-24T07:02:36.639Z,5.57
2019-03-24T07:05:12.196Z,5.50
2019-03-24T07:07:44.354Z,5.33
2019-03-24T07:10:16.503Z,4.37
2019-03-24T07:12:48.618Z,5.00
2019-03-24T07:15:20.682Z,7.43
2019-03-24T07:17:52.762Z,5.37
2019-03-24T07:20:24.848Z,6.40
2019-03-24T07:22:56.914Z,5.03
2019-03-24T07:25:28.948Z,5.70
2019-03-24T07:28:01.031Z,4.93
2019-03-24T07:30:33.206Z,6.00
2019-03-24T07:33:15.255Z,5.77
2019-03-24T07:35:47.393Z,6.13
2019-03-24T07:38:19.511Z,6.00
2019-03-24T07:40:51.586Z,5.53
2019-03-24T07:43:23.627Z,5.67
2019-03-24T07:45:55.647Z,6.40
2019-03-24T07:48:27.590Z,4.50
2019-03-24T07:50:59.552Z,4.93
2019-03-24T07:53:31.754Z,5.60
2019-03-24T07:56:04.070Z,5.80
2019-03-24T07:58:36.073Z,6.60
2019-03-24T08:01:08.187Z,6.03
2019-03-24T08:03:40.264Z,8.10
2019-03-24T08:06:12.347Z,6.50
2019-03-24T08:08:44.679Z,5.17
2019-03-24T08:11:16.870Z,4.40
2019-03-24T08:13:53.817Z,6.87
2019-03-24T08:16:22.722Z,5.47
2019-03-24T08:18:54.777Z,6.30
2019-03-24T08:21:26.764Z,5.27
2019-03-24T08:23:58.785Z,5.40
2019-03-24T08:26:30.835Z,5.83
2019-03-24T08:29:02.844Z,7.50
2019-03-24T08:31:34.952Z,5.60
2019-03-24T08:34:07.181Z,6.43
2019-03-24T08:36:39.168Z,6.00
2019-03-24T08:39:11.252Z,7.83
2019-03-24T08:41:43.455Z,6.93
2019-03-24T08:44:15.571Z,5.73
2019-03-24T08:46:47.691Z,7.07
2019-03-24T08:49:19.710Z,6.97
2019-03-24T08:51:51.849Z,6.77
2019-03-24T08:54:23.857Z,6.73
2019-03-24T08:56:56.008Z,5.53
2019-03-24T08:59:28.057Z,5.87
2019-03-24T09:02:00.149Z,6.00
2019-03-24T09:04:32.286Z,5.60
2019-03-24T09:07:04.350Z,6.20
2019-03-24T09:09:36.455Z,5.80
2019-03-24T09:12:08.536Z,6.00
2019-03-24T09:14:40.648Z,5.90
2019-03-24T09:17:12.718Z,7.13
2019-03-24T09:19:44.839Z,6.43
2019-03-24T09:22:16.910Z,6.40
2019-03-24T09:24:49.016Z,7.73
2019-03-24T09:27:21.075Z,6.63
2019-03-24T09:29:53.225Z,7.17
2019-03-24T09:32:25.391Z,7.73
2019-03-24T09:34:57.505Z,7.23
2019-03-24T09:37:29.557Z,6.73
2019-03-24T09:40:01.609Z,6.30
2019-03-24T09:42:33.669Z,7.67
2019-03-24T09:45:06.069Z,8.00
2019-03-24T09:47:38.172Z,7.63
2019-03-24T09:50:10.470Z,7.10
2019-03-24T09:52:42.507Z,7.87
2019-03-24T09:55:14.618Z,8.37
2019-03-24T09:57:48.853Z,8.23
2019-03-24T10:00:20.631Z,7.40
2019-03-24T10:02:52.761Z,7.50
2019-03-24T10:05:24.801Z,6.97
2019-03-24T10:07:57.030Z,5.70
2019-03-24T10:10:29.097Z,5.80
2019-03-24T10:13:01.285Z,9.47
2019-03-24T10:15:33.343Z,6.90
2019-03-24T10:18:08.557Z,5.33
2019-03-24T10:20:40.591Z,5.80
2019-03-24T10:23:12.670Z,5.37
2019-03-24T10:25:45.744Z,6.00
2019-03-24T10:28:17.803Z,6.40
2019-03-24T10:30:50.307Z,5.70
2019-03-24T10:33:22.406Z,5.00
2019-03-24T10:35:59.713Z,5.27
2019-03-24T10:38:31.834Z,5.23
2019-03-24T10:41:04.051Z,6.10
2019-03-24T10:43:36.113Z,6.63
2019-03-24T10:46:08.576Z,6.87
2019-03-24T10:48:40.819Z,5.50
2019-03-24T10:51:13.029Z,5.90
2019-03-24T10:53:45.304Z,5.00
2019-03-24T10:56:17.520Z,4.17
2019-03-24T10:58:49.617Z,4.30
2019-03-24T11:01:21.786Z,4.37
2019-03-24T11:03:53.874Z,5.50
2019-03-24T11:06:26.094Z,4.37
2019-03-24T11:08:58.216Z,4.50
2019-03-24T11:11:30.742Z,4.53
2019-03-24T11:14:02.883Z,3.80
2019-03-24T11:16:34.964Z,3.80
2019-03-24T11:19:07.435Z,4.00
2019-03-24T11:21:39.700Z,3.73
2019-03-24T11:24:11.868Z,3.03
2019-03-24T11:26:44.096Z,4.30
2019-03-24T11:29:17.150Z,3.90
2019-03-24T11:31:49.446Z,5.20
2019-03-24T11:34:21.769Z,4.43
2019-03-24T11:36:54.963Z,4.23
2019-03-24T11:39:27.236Z,4.10
2019-03-24T11:41:59.994Z,3.60
2019-03-24T11:44:34.720Z,3.40
2019-03-24T11:47:06.727Z,4.57
2019-03-24T11:49:45.916Z,3.60
2019-03-24T11:52:13.346Z,3.27
2019-03-24T11:54:45.582Z,3.57
2019-03-24T11:57:18.147Z,2.70
2019-03-24T11:59:51.000Z,3.80
2019-03-24T12:02:23.417Z,2.80
2019-03-24T12:04:55.578Z,2.90
2019-03-24T12:07:28.462Z,1.90
2019-03-24T12:10:01.166Z,1.80
2019-03-24T12:12:33.581Z,1.63
2019-03-24T12:15:06.601Z,1.53
2019-03-24T12:17:39.388Z,1.70
2019-03-24T12:20:12.082Z,2.10
2019-03-24T12:22:47.023Z,1.90
2019-03-24T12:25:23.297Z,3.00
2019-03-24T12:27:56.016Z,2.30
2019-03-24T12:30:36.613Z,2.60
2019-03-24T12:33:09.307Z,2.23
2019-03-24T12:35:45.443Z,1.87
2019-03-24T12:38:20.753Z,2.23
2019-03-24T12:40:57.510Z,1.70
2019-03-24T12:43:30.409Z,1.70
2019-03-24T12:46:05.519Z,1.47
2019-03-24T12:48:39.878Z,1.63
2019-03-24T12:51:23.596Z,1.43
2019-03-24T12:53:59.170Z,1.67
2019-03-24T12:56:34.233Z,1.87
2019-03-24T12:59:09.927Z,1.60
2019-03-24T13:01:42.180Z,1.50
2019-03-24T13:04:14.622Z,2.10
2019-03-24T13:06:58.538Z,1.93
2019-03-24T13:09:33.554Z,2.27
2019-03-24T13:12:06.732Z,1.97
2019-03-24T13:14:43.267Z,2.10
2019-03-24T13:17:17.113Z,1.70
2019-03-24T13:19:52.925Z,3.30
2019-03-24T13:22:25.170Z,4.33
2019-03-24T13:25:00.084Z,3.90
2019-03-24T13:27:32.438Z,3.97
2019-03-24T13:30:07.713Z,4.10
2019-03-24T13:32:42.150Z,4.40
2019-03-24T13:35:24.346Z,4.80
2019-03-24T13:38:03.278Z,4.10
2019-03-24T13:43:55.399Z,3.87
2019-03-24T13:46:29.012Z,3.43
2019-03-24T13:49:02.055Z,4.13
2019-03-24T13:51:35.134Z,2.97
2019-03-24T13:54:07.978Z,3.60
2019-03-24T13:56:40.457Z,3.60
2019-03-24T13:59:12.870Z,4.37
2019-03-24T14:01:45.339Z,4.77
2019-03-24T14:04:17.966Z,3.20
2019-03-24T14:06:53.875Z,2.60
2019-03-24T14:09:26.252Z,3.60
2019-03-24T14:11:58.767Z,4.30
2019-03-24T14:14:31.401Z,3.20
2019-03-24T14:17:03.716Z,3.60
2019-03-24T14:19:35.871Z,3.17
2019-03-24T14:22:10.821Z,2.87
2019-03-24T14:24:43.641Z,3.07
2019-03-24T14:27:16.634Z,2.73
2019-03-24T14:29:49.196Z,2.80
2019-03-24T14:32:23.531Z,2.40
2019-03-24T14:34:56.062Z,3.23
2019-03-24T14:37:37.344Z,2.17
2019-03-24T14:40:10.247Z,2.97
2019-03-24T14:42:47.857Z,2.40
2019-03-24T14:45:31.435Z,2.53
2019-03-24T14:48:04.223Z,1.87
2019-03-24T14:50:37.082Z,1.70
2019-03-24T14:53:10.939Z,2.43
2019-03-24T14:55:44.318Z,2.17
2019-03-24T14:58:18.718Z,2.03
2019-03-24T15:00:51.439Z,1.60
2019-03-24T15:03:24.025Z,1.63
2019-03-24T15:05:56.603Z,2.57
2019-03-24T15:08:29.695Z,2.53
2019-03-24T15:11:02.529Z,2.50
2019-03-24T15:13:35.416Z,1.60
2019-03-24T15:16:09.696Z,1.50
2019-03-24T15:18:49.218Z,2.00
2019-03-24T15:21:26.327Z,2.50
2019-03-24T15:23:58.501Z,2.30
2019-03-24T15:26:30.933Z,2.03
2019-03-24T15:29:03.115Z,1.67
2019-03-24T15:31:35.733Z,1.80
2019-03-24T15:34:07.893Z,1.90
2019-03-24T15:36:40.167Z,2.27
2019-03-24T15:39:13.467Z,1.90
2019-03-24T15:41:45.701Z,2.83
2019-03-24T15:44:17.866Z,1.83
2019-03-24T15:46:50.148Z,1.57
2019-03-24T15:49:22.398Z,2.30
2019-03-24T15:51:54.730Z,2.40
2019-03-24T15:54:27.345Z,1.90
2019-03-24T15:56:59.585Z,2.03
2019-03-24T15:59:31.880Z,2.17
2019-03-24T16:02:04.277Z,2.47
2019-03-24T16:04:36.725Z,2.27
2019-03-24T16:07:08.815Z,2.07
2019-03-24T16:09:41.009Z,2.60
2019-03-24T16:12:13.208Z,2.17
2019-03-24T16:14:45.607Z,1.40
2019-03-24T16:17:17.784Z,1.80
2019-03-24T16:19:50.132Z,1.60
2019-03-24T16:22:22.303Z,1.50
2019-03-24T16:24:54.777Z,1.70
2019-03-24T16:27:26.979Z,2.37
2019-03-24T16:29:59.261Z,1.53
2019-03-24T16:32:31.539Z,2.43
2019-03-24T16:35:03.710Z,1.30
2019-03-24T16:37:36.115Z,1.67
2019-03-24T16:40:08.564Z,1.30
2019-03-24T16:42:41.138Z,1.27
2019-03-24T16:45:15.510Z,2.10
2019-03-24T16:47:47.552Z,1.63
2019-03-24T16:50:22.418Z,2.77
2019-03-24T16:52:54.867Z,2.03
2019-03-24T16:55:31.248Z,1.73
2019-03-24T16:58:05.883Z,1.77
2019-03-24T17:00:38.710Z,1.57
2019-03-24T17:03:11.686Z,2.17
2019-03-24T17:05:44.958Z,1.63
2019-03-24T17:08:18.392Z,3.10
2019-03-24T17:11:05.091Z,2.17
2019-03-24T17:13:27.777Z,1.77
2019-03-24T17:16:02.473Z,1.70
2019-03-24T17:18:36.109Z,2.70
2019-03-24T17:21:08.667Z,2.57
2019-03-24T17:23:43.707Z,2.50
2019-03-24T17:26:18.295Z,1.50
2019-03-24T17:28:50.592Z,3.03
2019-03-24T17:31:23.060Z,2.20
2019-03-24T17:33:57.505Z,1.83
2019-03-24T17:36:32.037Z,2.53
2019-03-24T17:39:07.415Z,2.83
2019-03-24T17:41:43.207Z,1.70
2019-03-24T17:44:20.090Z,1.53
2019-03-24T17:46:53.771Z,2.60
2019-03-24T17:49:34.936Z,2.87
2019-03-24T17:52:11.111Z,2.63
2019-03-24T17:54:44.296Z,2.50
2019-03-24T17:57:19.663Z,2.50
2019-03-24T18:00:02.827Z,3.17
2019-03-24T18:02:36.800Z,2.67
2019-03-24T18:05:18.139Z,2.27
2019-03-24T18:07:56.619Z,2.10
2019-03-24T18:10:31.060Z,2.27
2019-03-24T18:13:05.902Z,2.03
2019-03-24T18:15:42.250Z,2.00
2019-03-24T18:18:14.511Z,2.30
2019-03-24T18:20:48.532Z,2.17
2019-03-24T18:23:21.954Z,2.23
2019-03-24T18:25:54.210Z,2.03
2019-03-24T18:28:29.448Z,3.73
2019-03-24T18:31:01.786Z,11.40
2019-03-24T18:33:40.984Z,6.10
2019-03-24T18:36:13.118Z,6.40
2019-03-24T18:38:47.976Z,3.10
2019-03-24T18:41:20.115Z,5.40
2019-03-24T18:43:52.202Z,3.97
2019-03-24T18:46:24.325Z,5.27
2019-03-24T18:48:56.424Z,3.67
2019-03-24T18:51:28.743Z,6.33
2019-03-24T18:54:00.866Z,3.80
2019-03-24T18:56:32.998Z,3.60
2019-03-24T18:59:06.547Z,3.03
2019-03-24T19:01:38.667Z,3.07
2019-03-24T19:04:14.483Z,2.47
2019-03-24T19:06:46.601Z,2.20
2019-03-24T19:09:20.512Z,2.30
2019-03-24T19:11:52.631Z,2.00
2019-03-24T19:14:25.078Z,1.80
2019-03-24T19:16:57.215Z,2.50
2019-03-24T19:19:29.451Z,2.50
2019-03-24T19:22:04.263Z,2.33
2019-03-24T19:24:35.564Z,2.27
2019-03-24T19:27:07.739Z,2.20
2019-03-24T19:29:42.605Z,2.50
2019-03-24T19:32:15.385Z,1.90
2019-03-24T19:34:47.884Z,2.20
2019-03-24T19:37:20.405Z,2.07
2019-03-24T19:39:55.695Z,2.10
2019-03-24T19:42:27.940Z,2.17
2019-03-24T19:45:00.314Z,2.10
2019-03-24T19:47:33.684Z,1.83
2019-03-24T19:50:07.243Z,2.10
2019-03-24T19:52:44.578Z,2.77
2019-03-24T19:55:16.097Z,2.33
2019-03-24T19:57:48.231Z,2.30
2019-03-24T20:00:20.323Z,3.00
2019-03-24T20:02:52.665Z,2.70
2019-03-24T20:05:26.864Z,3.20
2019-03-24T20:07:59.194Z,2.77
2019-03-24T20:10:31.504Z,3.10
2019-03-24T20:13:03.655Z,2.87
2019-03-24T20:15:35.908Z,2.93
2019-03-24T20:18:08.419Z,3.30
2019-03-24T20:20:40.776Z,2.47
2019-03-24T20:23:21.550Z,3.00
2019-03-24T20:25:59.784Z,2.30
2019-03-24T20:28:32.170Z,2.80
2019-03-24T20:31:04.489Z,2.70
2019-03-24T20:33:39.436Z,4.13
2019-03-24T20:36:15.828Z,2.53
2019-03-24T20:38:57.332Z,2.47
2019-03-24T20:41:34.754Z,4.60
2019-03-24T20:44:07.067Z,2.93
2019-03-24T20:46:57.964Z,3.67
2019-03-24T20:49:34.318Z,3.50
2019-03-24T20:52:06.592Z,3.50
2019-03-24T20:54:40.178Z,2.93
2019-03-24T20:57:12.381Z,3.70
2019-03-24T20:59:44.441Z,3.10
2019-03-24T21:02:16.625Z,3.77
2019-03-24T21:04:48.890Z,3.60
2019-03-24T21:07:25.634Z,2.70
2019-03-24T21:10:01.131Z,3.83
2019-03-24T21:12:46.440Z,3.67
2019-03-24T21:15:18.626Z,4.10
2019-03-24T21:17:51.110Z,3.10
2019-03-24T21:20:23.353Z,3.20
2019-03-24T21:22:55.806Z,3.60
2019-03-24T21:25:28.725Z,3.83
2019-03-24T21:28:18.204Z,4.20
2019-03-24T21:30:50.670Z,3.27
2019-03-24T21:33:22.862Z,4.10
2019-03-24T21:35:56.869Z,3.50
2019-03-24T21:38:28.980Z,3.13
2019-03-24T21:41:01.291Z,3.10
2019-03-24T21:43:33.470Z,3.00
2019-03-24T21:46:05.657Z,3.57
2019-03-24T21:48:37.823Z,3.03
2019-03-24T21:51:09.979Z,3.80
2019-03-24T21:53:42.107Z,3.50
2019-03-24T21:56:14.485Z,4.00
2019-03-24T21:58:46.790Z,3.50
2019-03-24T22:01:22.240Z,2.67
2019-03-24T22:03:54.239Z,3.90
2019-03-24T22:06:26.278Z,3.00
2019-03-24T22:08:58.423Z,4.07
2019-03-24T22:11:30.484Z,3.13
2019-03-24T22:14:02.720Z,4.10
2019-03-24T22:16:34.791Z,3.50
2019-03-24T22:19:06.934Z,3.33
2019-03-24T22:21:39.016Z,3.70
2019-03-24T22:24:11.199Z,3.33
2019-03-24T22:26:47.536Z,3.23
2019-03-24T22:29:19.626Z,3.40
2019-03-24T22:31:51.705Z,3.13
2019-03-24T22:34:23.689Z,2.77
2019-03-24T22:36:55.722Z,2.33
2019-03-24T22:39:27.821Z,3.00
2019-03-24T22:41:59.970Z,3.27
2019-03-24T22:44:32.102Z,3.13
2019-03-24T22:47:04.187Z,3.20
2019-03-24T22:49:36.330Z,3.80
2019-03-24T22:52:08.562Z,3.47
2019-03-24T22:54:40.584Z,3.00
2019-03-24T22:57:13.087Z,3.27
2019-03-24T22:59:45.302Z,3.27
2019-03-24T23:02:26.761Z,3.00
2019-03-24T23:04:58.708Z,3.37
2019-03-24T23:07:30.719Z,3.90
2019-03-24T23:10:02.762Z,3.73
2019-03-24T23:12:34.926Z,2.97
2019-03-24T23:15:07.864Z,4.10
2019-03-24T23:17:40.067Z,3.23
2019-03-24T23:20:12.146Z,3.57
2019-03-24T23:22:44.153Z,3.30
2019-03-24T23:25:16.298Z,3.43
2019-03-24T23:27:48.408Z,4.10
2019-03-24T23:30:20.749Z,3.63
2019-03-24T23:32:52.867Z,4.10
2019-03-24T23:35:25.034Z,3.30
2019-03-24T23:37:57.528Z,2.50
2019-03-24T23:40:30.527Z,2.83
2019-03-24T23:43:02.609Z,3.17
2019-03-24T23:45:34.751Z,2.77
2019-03-24T23:48:08.094Z,3.30
2019-03-24T23:50:40.188Z,2.73
2019-03-24T23:53:12.251Z,3.50
2019-03-24T23:55:44.475Z,4.00
2019-03-24T23:58:16.582Z,3.23
